Bad Axe, MI

1:46 PM EDT on July 28, 2016 (GMT -0400)
Huron Doll Repair Bad Axe (989) 269-7766 | | Change Station
Active Advisory: Beach Hazard Statement

Elev 761 ft 43.80 °N, 83.02 °W | Updated 21 minutes ago

Mostly Cloudy
Mostly Cloudy
78.3 °F
Feels Like 80 °F
N
3.0
Wind Variable Wind from NNE
Gusts 10.0 mph

Today
High -- | Low -- °F
--% Chance of Precip.
Yesterday
High -- | Low -- °F
Precip. -- in
Pressure 29.96 in
Visibility 10.0 miles
Clouds Mostly Cloudy 12000 ft
Heat Index 80 °F
Dew Point 64 °F
Humidity 61%
Rainfall 0.00 in
Snow Depth Not available.
6:16 AM 8:59 PM
Waning Crescent, 30% visible
METAR KBAX 281734Z AUTO 04005KT 10SM BKN120 25/15 A2996 RMK AO2 T02520150
Pressure 29.96 in
Visibility 10.0 miles
Clouds Mostly Cloudy 12000 ft
Heat Index 80 °F
Dew Point 64 °F
Humidity 61%
Rainfall 0.00 in
Snow Depth Not available.
6:16 AM 8:59 PM
Waning Crescent, 30% visible
METAR KBAX 281734Z AUTO 04005KT 10SM BKN120 25/15 A2996 RMK AO2 T02520150

10-Day Weather Forecast

Almanac

Astronomy

Jul. 28, 2016 Rise Set
Actual Time
Civil Twilight
Nautical Twilight
Astronomical Twilight
Moon
Length of Visible Light
Length of Day
Tomorrow will be .
, % of the Moon is Illuminated

Today's Extremes

State Highs State Lows

Community

WunderPhotos

Upload Photos

1,928,163 photos uploaded!

WunderBlog® & News

Nearby

Air Quality

  Air Quality AQ Index Pollutant
Not available.

Snow Depth

Station Depth Elevation

Earthquake Activity

City Distance Mag. Time & Date
Minimum magnitude displayed is 2.5.

Coastal Water Temperatures

Place Temperature

Stations

Nearby Weather Stations

Station Location Temp. Windchill Dew Point Humidity Wind Precip. Elev Updated Type
                   

Watches & Warnings

Beach Hazard Statement
Issued: 4:01 AM EDT Jul. 28, 2016 – National Weather Service

... Beach hazards statement remains in effect from 11 am EDT this
morning through this evening...

* high wave action and dangerous swimming conditions expected.

* Strong structural currents... expected.

* Location... beaches from Linwood Beach to Port Huron
including...

Linwood Beach... Caseville... Sand Point... Port Crescent State
Park... Port Austin... Harbor Beach... Port Sanilac... Lexington...
Birch Beach... Lakeport... Fort Gratiot... Port Huron...

* overview/potential impacts... winds will become northeast and
gusts to 25 knots on Thursday. This increased onshore flow will
create high wave conditions that will produce dangerous swimming
conditions on area beaches.

Precautionary/preparedness actions...

Children should not enter the water unsupervised and without a
certified flotation device. Caution should be used when in or
near the water. Pay attention to flags and signs posted near
beach access points and lifeguard stations.

To learn more about dangerous waves and currents please visit
dangerouscurrents.Org (all lower case)